French Village, Canada
Current Conditions -  °F | °C
As of 2:00 AM on Saturday 25 Oct 2014 (Local Time) from CYHZ Reporting Station
Drizzle Drizzle  
Wind Chill: 52°   Ceiling: 200
Heat Index: 52°   Visibility: 3mi
Dew Point: 52°   Wind: 13mph
Humidity: 100%   Direction: 320°NW
Pressure: 29.4"   Gusts: NA
Location:  44.7°N, 63.88°W
Report Text: CYHZ 250500Z 32011KT 3SM -DZ BR OVC002 11/11 A2940 RMK SF8 SLP957 DENSITY ALT 700FT
Loading
Personal Weather Stations






























Interactive Weather Map New forecast layout! Learn more

10-Day Weather Forecast

Advertisements
Track Severe Weather on mobile